createdAt,value
2016-11-08T00:00:14.982Z,1002.13
2016-11-08T00:01:15.039Z,1002.11
2016-11-08T00:02:14.998Z,1002.12
2016-11-08T00:03:15.004Z,1002.16
2016-11-08T00:04:15.010Z,1002.15
2016-11-08T00:05:15.018Z,1002.15
2016-11-08T00:06:15.097Z,1002.13
2016-11-08T00:07:15.141Z,1002.15
2016-11-08T00:08:15.042Z,1002.15
2016-11-08T00:09:15.050Z,1002.12
2016-11-08T00:10:15.064Z,1002.14
2016-11-08T00:11:15.064Z,1002.15
2016-11-08T00:12:15.124Z,1002.15
2016-11-08T00:13:15.079Z,1002.12
2016-11-08T00:14:15.088Z,1002.14
2016-11-08T00:15:15.095Z,1002.13
2016-11-08T00:16:15.102Z,1002.16
2016-11-08T00:17:15.110Z,1002.14
2016-11-08T00:18:15.118Z,1002.1
2016-11-08T00:19:15.125Z,1002.11
2016-11-08T00:20:15.183Z,1002.09
2016-11-08T00:21:15.140Z,1002.07
2016-11-08T00:22:15.149Z,1002.08
2016-11-08T00:23:15.155Z,1002.05
2016-11-08T00:24:15.163Z,1002.05
2016-11-08T00:25:15.171Z,1002.05
2016-11-08T00:26:15.180Z,1002.01
2016-11-08T00:27:15.186Z,1002.01
2016-11-08T00:28:15.196Z,1002.03
2016-11-08T00:29:15.201Z,1002.03
2016-11-08T00:30:15.211Z,1001.99
2016-11-08T00:31:16.170Z,1002.04
2016-11-08T00:32:15.225Z,1002.05
2016-11-08T00:33:15.282Z,1002.06
2016-11-08T00:34:15.240Z,1002.04
2016-11-08T00:35:15.249Z,1002.06
2016-11-08T00:36:15.255Z,1002.04
2016-11-08T00:37:15.263Z,1002.04
2016-11-08T00:38:15.271Z,1002.02
2016-11-08T00:39:15.278Z,1002.06
2016-11-08T00:40:15.285Z,1002.03
2016-11-08T00:41:15.344Z,1002.04
2016-11-08T00:42:15.301Z,1002.05
2016-11-08T00:43:15.309Z,1002.05
2016-11-08T00:44:15.316Z,1002.09
2016-11-08T00:45:15.323Z,1002.07
2016-11-08T00:46:15.335Z,1002.08
2016-11-08T00:47:15.340Z,1002.06
2016-11-08T00:48:15.345Z,1002.08
2016-11-08T00:49:15.405Z,1002.14
2016-11-08T00:50:15.360Z,1002.17
2016-11-08T00:51:15.369Z,1002.11
2016-11-08T00:52:15.427Z,1002.15
2016-11-08T00:53:16.335Z,1002.14
2016-11-08T00:54:15.393Z,1002.11
2016-11-08T00:55:15.399Z,1002.1
2016-11-08T00:56:15.408Z,1002.11
2016-11-08T00:57:15.415Z,1002.09
2016-11-08T00:58:15.423Z,1002.14
2016-11-08T00:59:15.431Z,1002.15
2016-11-08T01:00:15.437Z,1002.18
2016-11-08T01:01:15.445Z,1002.18
2016-11-08T01:02:15.452Z,1002.17
2016-11-08T01:03:15.460Z,1002.15
2016-11-08T01:04:15.469Z,1002.13
2016-11-08T01:05:15.474Z,1002.13
2016-11-08T01:06:15.482Z,1002.12
2016-11-08T01:07:15.490Z,1002.15
2016-11-08T01:08:15.497Z,1002.13
2016-11-08T01:09:15.506Z,1002.12
2016-11-08T01:10:15.512Z,1002.1
2016-11-08T01:11:15.521Z,1002.1
2016-11-08T01:12:15.578Z,1002.1
2016-11-08T01:13:15.586Z,1002.1
2016-11-08T01:14:15.594Z,1002.06
2016-11-08T01:15:16.502Z,1002.07
2016-11-08T01:16:15.559Z,1002.02
2016-11-08T01:17:15.616Z,1002.05
2016-11-08T01:18:15.574Z,1002.01
2016-11-08T01:19:15.582Z,1002.02
2016-11-08T01:20:15.588Z,1002.05
2016-11-08T01:21:15.596Z,1002.04
2016-11-08T01:22:15.604Z,1002.02
2016-11-08T01:23:15.611Z,1002.01
2016-11-08T01:24:15.618Z,1001.97
2016-11-08T01:25:15.676Z,1001.96
2016-11-08T01:26:15.633Z,1002.01
2016-11-08T01:27:15.642Z,1001.96
2016-11-08T01:28:15.701Z,1001.96
2016-11-08T01:29:15.674Z,1001.97
2016-11-08T01:30:15.715Z,1001.97
2016-11-08T01:31:15.671Z,1001.99
2016-11-08T01:32:15.679Z,1001.99
2016-11-08T01:33:15.686Z,1002
2016-11-08T01:34:15.694Z,1002.01
2016-11-08T01:35:15.702Z,1001.98
2016-11-08T01:36:15.709Z,1002.02
2016-11-08T01:37:15.967Z,1001.98
2016-11-08T01:38:15.775Z,1001.99
2016-11-08T01:39:15.731Z,1001.99
2016-11-08T01:40:15.740Z,1001.96
2016-11-08T01:41:15.748Z,1001.95
2016-11-08T01:42:15.755Z,1001.99
2016-11-08T01:43:15.762Z,1001.99
2016-11-08T01:44:15.770Z,1001.95
2016-11-08T01:45:15.777Z,1002
2016-11-08T01:46:15.784Z,1001.98
2016-11-08T01:47:15.792Z,1002
2016-11-08T01:48:15.800Z,1001.95
2016-11-08T01:49:15.807Z,1001.97
2016-11-08T01:50:15.814Z,1001.96
2016-11-08T01:51:15.823Z,1001.98
2016-11-08T01:52:16.231Z,1001.94
2016-11-08T01:53:15.837Z,1001.93
2016-11-08T01:54:15.846Z,1001.96
2016-11-08T01:55:15.853Z,1001.92
2016-11-08T01:56:15.916Z,1001.94
2016-11-08T01:57:15.868Z,1001.94
2016-11-08T01:58:15.876Z,1001.93
2016-11-08T01:59:15.883Z,1001.94
2016-11-08T02:00:15.891Z,1001.9
2016-11-08T02:01:15.949Z,1001.9
2016-11-08T02:02:15.907Z,1001.89
2016-11-08T02:03:15.915Z,1001.91
2016-11-08T02:04:15.921Z,1001.91
2016-11-08T02:05:15.930Z,1001.93
2016-11-08T02:06:15.938Z,1001.91
2016-11-08T02:07:15.945Z,1001.9
2016-11-08T02:08:15.953Z,1001.89
2016-11-08T02:09:15.961Z,1001.89
2016-11-08T02:10:15.967Z,1001.92
2016-11-08T02:11:15.974Z,1001.92
2016-11-08T02:12:15.982Z,1001.91
2016-11-08T02:13:15.990Z,1001.91
2016-11-08T02:14:15.997Z,1001.92
2016-11-08T02:15:16.054Z,1001.93
2016-11-08T02:16:16.063Z,1001.92
2016-11-08T02:17:16.071Z,1001.89
2016-11-08T02:18:16.028Z,1001.87
2016-11-08T02:19:16.037Z,1001.91
2016-11-08T02:20:16.042Z,1001.9
2016-11-08T02:21:16.051Z,1001.92
2016-11-08T02:22:16.056Z,1001.9
2016-11-08T02:23:16.764Z,1001.92
2016-11-08T02:24:16.073Z,1001.89
2016-11-08T02:25:16.132Z,1001.92
2016-11-08T02:26:16.138Z,1001.95
2016-11-08T02:27:16.095Z,1001.89
2016-11-08T02:28:16.103Z,1001.93
2016-11-08T02:29:16.163Z,1001.89
2016-11-08T02:30:16.118Z,1001.92
2016-11-08T02:31:16.176Z,1001.91
2016-11-08T02:32:16.134Z,1001.92
2016-11-08T02:33:16.191Z,1001.91
2016-11-08T02:34:16.200Z,1001.95
2016-11-08T02:35:16.158Z,1001.91
2016-11-08T02:36:16.215Z,1001.89
2016-11-08T02:37:16.171Z,1001.88
2016-11-08T02:38:16.829Z,1001.93
2016-11-08T02:39:16.236Z,1001.9
2016-11-08T02:40:16.195Z,1001.97
2016-11-08T02:41:16.202Z,1001.99
2016-11-08T02:42:16.258Z,1001.96
2016-11-08T02:43:16.216Z,1001.98
2016-11-08T02:44:16.223Z,1001.97
2016-11-08T02:45:16.231Z,1001.95
2016-11-08T02:46:16.239Z,1001.93
2016-11-08T02:47:16.297Z,1001.96
2016-11-08T02:48:16.305Z,1001.97
2016-11-08T02:49:16.262Z,1001.95
2016-11-08T02:50:16.269Z,1001.99
2016-11-08T02:51:16.328Z,1001.95
2016-11-08T02:52:16.284Z,1001.97
2016-11-08T02:53:16.292Z,1001.99
2016-11-08T02:54:16.350Z,1002.03
2016-11-08T02:55:16.306Z,1001.97
2016-11-08T02:56:16.365Z,1002.01
2016-11-08T02:57:16.322Z,1002
2016-11-08T02:58:16.331Z,1002
2016-11-08T02:59:16.336Z,1002
2016-11-08T03:00:16.495Z,1001.99
2016-11-08T03:01:16.352Z,1001.95
2016-11-08T03:02:16.361Z,1001.95
2016-11-08T03:03:16.916Z,1002
2016-11-08T03:04:16.426Z,1001.95
2016-11-08T03:05:16.383Z,1001.96
2016-11-08T03:06:16.390Z,1001.95
2016-11-08T03:07:16.396Z,1001.98
2016-11-08T03:08:16.406Z,1002
2016-11-08T03:09:17.364Z,1001.97
2016-11-08T03:10:16.421Z,1002
2016-11-08T03:11:16.428Z,1002.03
2016-11-08T03:12:16.435Z,1002.01
2016-11-08T03:13:16.444Z,1002.02
2016-11-08T03:14:16.450Z,1002.02
2016-11-08T03:15:16.459Z,1001.97
2016-11-08T03:16:16.466Z,1002
2016-11-08T03:17:16.474Z,1002.02
2016-11-08T03:18:16.480Z,1002.04
2016-11-08T03:19:16.488Z,1002.01
2016-11-08T03:20:16.496Z,1002.02
2016-11-08T03:21:16.503Z,1002.04
2016-11-08T03:22:16.511Z,1002.05
2016-11-08T03:23:16.518Z,1002.04
2016-11-08T03:24:17.527Z,1002.03
2016-11-08T03:25:16.533Z,1002.05
2016-11-08T03:26:16.541Z,1002.05
2016-11-08T03:27:16.599Z,1002.04
2016-11-08T03:28:16.555Z,1002.02
2016-11-08T03:29:16.612Z,1002.04
2016-11-08T03:30:16.570Z,1002.04
2016-11-08T03:31:16.579Z,1002.05
2016-11-08T03:32:16.585Z,1002.07
2016-11-08T03:33:16.643Z,1002.07
2016-11-08T03:34:16.601Z,1002.02
2016-11-08T03:35:16.608Z,1002.03
2016-11-08T03:36:16.616Z,1002.06
2016-11-08T03:37:16.623Z,1002.07
2016-11-08T03:38:16.631Z,1002.08
2016-11-08T03:39:16.639Z,1002.06
2016-11-08T03:40:16.646Z,1002.06
2016-11-08T03:41:16.655Z,1002.08
2016-11-08T03:42:16.662Z,1002.06
2016-11-08T03:43:16.669Z,1002.09
2016-11-08T03:44:16.676Z,1002.08
2016-11-08T03:45:16.684Z,1002.11
2016-11-08T03:46:16.991Z,1002.19
2016-11-08T03:47:16.698Z,1002.15
2016-11-08T03:48:16.756Z,1002.15
2016-11-08T03:49:16.714Z,1002.14
2016-11-08T03:50:16.720Z,1002.16
2016-11-08T03:51:16.729Z,1002.15
2016-11-08T03:52:16.736Z,1002.18
2016-11-08T03:53:16.744Z,1002.17
2016-11-08T03:54:16.750Z,1002.18
2016-11-08T03:55:16.759Z,1002.19
2016-11-08T03:56:16.767Z,1002.15
2016-11-08T03:57:16.773Z,1002.19
2016-11-08T03:58:16.780Z,1002.18
2016-11-08T03:59:16.790Z,1002.25
2016-11-08T04:00:16.797Z,1002.21
2016-11-08T04:01:16.853Z,1002.24
2016-11-08T04:02:16.810Z,1002.21
2016-11-08T04:03:16.819Z,1002.18
2016-11-08T04:04:16.827Z,1002.2
2016-11-08T04:05:16.833Z,1002.16
2016-11-08T04:06:16.841Z,1002.15
2016-11-08T04:07:16.849Z,1002.14
2016-11-08T04:08:17.055Z,1002.14
2016-11-08T04:09:16.863Z,1002.15
2016-11-08T04:10:16.872Z,1002.12
2016-11-08T04:11:16.879Z,1002.1
2016-11-08T04:12:16.886Z,1002.12
2016-11-08T04:13:16.893Z,1002.08
2016-11-08T04:14:16.901Z,1002.11
2016-11-08T04:15:16.908Z,1002.11
2016-11-08T04:16:16.915Z,1002.1
2016-11-08T04:17:16.925Z,1002.11
2016-11-08T04:18:16.931Z,1002.11
2016-11-08T04:19:16.939Z,1002.08
2016-11-08T04:20:16.945Z,1002.12
2016-11-08T04:21:16.953Z,1002.11
2016-11-08T04:22:16.961Z,1002.11
2016-11-08T04:23:16.968Z,1002.08
2016-11-08T04:24:16.976Z,1002.1
2016-11-08T04:25:16.982Z,1002.1
2016-11-08T04:26:16.991Z,1002.1
2016-11-08T04:27:16.999Z,1002.08
2016-11-08T04:28:17.005Z,1002.04
2016-11-08T04:29:17.013Z,1002.03
2016-11-08T04:30:17.020Z,1002.02
2016-11-08T04:31:17.078Z,1002.02
2016-11-08T04:32:17.986Z,1002
2016-11-08T04:33:17.043Z,1002.02
2016-11-08T04:34:17.049Z,1002.03
2016-11-08T04:35:17.057Z,1002.03
2016-11-08T04:36:17.065Z,1002
2016-11-08T04:37:17.071Z,1002.05
2016-11-08T04:38:17.079Z,1002
2016-11-08T04:39:17.138Z,1002.02
2016-11-08T04:40:17.095Z,1002.03
2016-11-08T04:41:17.102Z,1002.05
2016-11-08T04:42:17.159Z,1002.01
2016-11-08T04:43:17.117Z,1002.01
2016-11-08T04:44:17.125Z,1002.02
2016-11-08T04:45:17.183Z,1001.99
2016-11-08T04:46:17.139Z,1002.02
2016-11-08T04:47:17.148Z,1002.02
2016-11-08T04:48:17.155Z,1002.03
2016-11-08T04:49:17.162Z,1002.01
2016-11-08T04:50:17.171Z,1002.03
2016-11-08T04:51:17.176Z,1002.03
2016-11-08T04:52:17.184Z,1002.02
2016-11-08T04:53:17.192Z,1002.04
2016-11-08T04:54:17.699Z,1002.05
2016-11-08T04:55:17.207Z,1002.04
2016-11-08T04:56:17.265Z,1002.05
2016-11-08T04:57:17.222Z,1002.07
2016-11-08T04:58:17.230Z,1002.06
2016-11-08T04:59:17.288Z,1002.07
2016-11-08T05:00:17.294Z,1002.09
2016-11-08T05:01:17.301Z,1002.09
2016-11-08T05:02:17.258Z,1002.05
2016-11-08T05:03:17.266Z,1002.06
2016-11-08T05:04:17.274Z,1002.09
2016-11-08T05:05:17.281Z,1002.07
2016-11-08T05:06:17.289Z,1002.09
2016-11-08T05:07:17.296Z,1002.09
2016-11-08T05:08:17.354Z,1002.1
2016-11-08T05:09:17.311Z,1002.15
2016-11-08T05:10:17.369Z,1002.14
2016-11-08T05:11:17.327Z,1002.15
2016-11-08T05:12:17.336Z,1002.16
2016-11-08T05:13:17.343Z,1002.15
2016-11-08T05:14:17.350Z,1002.14
2016-11-08T05:15:17.357Z,1002.14
2016-11-08T05:16:17.464Z,1002.14
2016-11-08T05:17:17.371Z,1002.17
2016-11-08T05:18:17.378Z,1002.13
2016-11-08T05:19:17.386Z,1002.12
2016-11-08T05:20:17.396Z,1002.15
2016-11-08T05:21:17.401Z,1002.15
2016-11-08T05:22:17.459Z,1002.14
2016-11-08T05:23:17.467Z,1002.12
2016-11-08T05:24:17.424Z,1002.16
2016-11-08T05:25:17.431Z,1002.12
2016-11-08T05:26:17.439Z,1002.12
2016-11-08T05:27:17.447Z,1002.12
2016-11-08T05:28:17.505Z,1002.09
2016-11-08T05:29:17.461Z,1002.1
2016-11-08T05:30:17.469Z,1002.1
2016-11-08T05:31:17.477Z,1002.08
2016-11-08T05:32:17.484Z,1002.07
2016-11-08T05:33:17.496Z,1002.12
2016-11-08T05:34:17.549Z,1002.1
2016-11-08T05:35:17.556Z,1002.09
2016-11-08T05:36:17.514Z,1002.13
2016-11-08T05:37:17.521Z,1002.1
2016-11-08T05:38:17.578Z,1002.13
2016-11-08T05:39:17.536Z,1002.15
2016-11-08T05:40:18.344Z,1002.11
2016-11-08T05:41:17.551Z,1002.08
2016-11-08T05:42:17.559Z,1002.1
2016-11-08T05:43:17.566Z,1002.16
2016-11-08T05:44:17.573Z,1002.18
2016-11-08T05:45:17.581Z,1002.18
2016-11-08T05:46:17.589Z,1002.23
2016-11-08T05:47:17.595Z,1002.2
2016-11-08T05:48:17.604Z,1002.22
2016-11-08T05:49:17.611Z,1002.24
2016-11-08T05:50:17.618Z,1002.25
2016-11-08T05:51:17.675Z,1002.23
2016-11-08T05:52:17.633Z,1002.24
2016-11-08T05:53:17.640Z,1002.26
2016-11-08T05:54:17.697Z,1002.29
2016-11-08T05:55:17.705Z,1002.3
2016-11-08T05:56:17.662Z,1002.32
2016-11-08T05:57:17.671Z,1002.32
2016-11-08T05:58:17.689Z,1002.29
2016-11-08T05:59:17.685Z,1002.29
2016-11-08T06:00:17.692Z,1002.28
2016-11-08T06:01:17.699Z,1002.29
2016-11-08T06:02:18.157Z,1002.31
2016-11-08T06:03:17.715Z,1002.33
2016-11-08T06:04:17.722Z,1002.33
2016-11-08T06:05:17.731Z,1002.32
2016-11-08T06:06:17.786Z,1002.34
2016-11-08T06:07:17.794Z,1002.35
2016-11-08T06:08:17.752Z,1002.34
2016-11-08T06:09:17.810Z,1002.33
2016-11-08T06:10:17.766Z,1002.32
2016-11-08T06:11:17.824Z,1002.35
2016-11-08T06:12:17.782Z,1002.36
2016-11-08T06:13:17.789Z,1002.35
2016-11-08T06:14:17.796Z,1002.32
2016-11-08T06:15:17.804Z,1002.34
2016-11-08T06:16:17.810Z,1002.33
2016-11-08T06:17:17.818Z,1002.29
2016-11-08T06:18:17.826Z,1002.3
2016-11-08T06:19:17.832Z,1002.33
2016-11-08T06:20:17.840Z,1002.33
2016-11-08T06:21:17.899Z,1002.35
2016-11-08T06:22:17.854Z,1002.33
2016-11-08T06:23:17.863Z,1002.37
2016-11-08T06:24:17.873Z,1002.35
2016-11-08T06:25:17.876Z,1002.38
2016-11-08T06:26:17.885Z,1002.33
2016-11-08T06:27:17.892Z,1002.36
2016-11-08T06:28:17.898Z,1002.38
2016-11-08T06:29:17.907Z,1002.37
2016-11-08T06:30:17.914Z,1002.33
2016-11-08T06:31:17.921Z,1002.35
2016-11-08T06:32:17.930Z,1002.36
2016-11-08T06:33:17.936Z,1002.38
2016-11-08T06:34:17.995Z,1002.4
2016-11-08T06:35:17.951Z,1002.4
2016-11-08T06:36:17.958Z,1002.42
2016-11-08T06:37:18.019Z,1002.42
2016-11-08T06:38:17.974Z,1002.41
2016-11-08T06:39:17.981Z,1002.44
2016-11-08T06:40:18.038Z,1002.5
2016-11-08T06:41:17.997Z,1002.49
2016-11-08T06:42:18.054Z,1002.51
2016-11-08T06:43:18.010Z,1002.53
2016-11-08T06:44:18.019Z,1002.53
2016-11-08T06:45:18.027Z,1002.5
2016-11-08T06:46:18.034Z,1002.54
2016-11-08T06:47:18.042Z,1002.55
2016-11-08T06:48:18.551Z,1002.57
2016-11-08T06:49:18.105Z,1002.57
2016-11-08T06:50:18.064Z,1002.58
2016-11-08T06:51:18.070Z,1002.56
2016-11-08T06:52:18.079Z,1002.56
2016-11-08T06:53:18.085Z,1002.58
2016-11-08T06:54:18.144Z,1002.56
2016-11-08T06:55:18.101Z,1002.6
2016-11-08T06:56:18.108Z,1002.62
2016-11-08T06:57:18.116Z,1002.62
2016-11-08T06:58:18.173Z,1002.61
2016-11-08T06:59:18.131Z,1002.61
2016-11-08T07:00:18.137Z,1002.61
2016-11-08T07:01:18.146Z,1002.63
2016-11-08T07:02:18.152Z,1002.63
2016-11-08T07:03:18.160Z,1002.62
2016-11-08T07:04:18.168Z,1002.63
2016-11-08T07:05:18.174Z,1002.61
2016-11-08T07:06:18.183Z,1002.65
2016-11-08T07:07:18.190Z,1002.66
2016-11-08T07:08:18.203Z,1002.67
2016-11-08T07:09:18.254Z,1002.64
2016-11-08T07:10:18.512Z,1002.7
2016-11-08T07:11:18.268Z,1002.66
2016-11-08T07:12:18.227Z,1002.7
2016-11-08T07:13:18.234Z,1002.74
2016-11-08T07:14:18.242Z,1002.71
2016-11-08T07:15:18.248Z,1002.74
2016-11-08T07:16:18.256Z,1002.73
2016-11-08T07:17:18.264Z,1002.75
2016-11-08T07:18:18.321Z,1002.73
2016-11-08T07:19:18.278Z,1002.79
2016-11-08T07:20:18.285Z,1002.74
2016-11-08T07:21:18.344Z,1002.77
2016-11-08T07:22:18.350Z,1002.78
2016-11-08T07:23:18.306Z,1002.77
2016-11-08T07:24:18.313Z,1002.75
2016-11-08T07:25:18.473Z,1002.76
2016-11-08T07:26:18.328Z,1002.75
2016-11-08T07:27:18.337Z,1002.75
2016-11-08T07:28:18.344Z,1002.79
2016-11-08T07:29:18.352Z,1002.81
2016-11-08T07:30:18.358Z,1002.77
2016-11-08T07:31:18.416Z,1002.86
2016-11-08T07:32:18.375Z,1002.84
2016-11-08T07:33:18.381Z,1002.87
2016-11-08T07:34:19.489Z,1002.87
2016-11-08T07:35:18.396Z,1002.85
2016-11-08T07:36:18.403Z,1002.83
2016-11-08T07:37:18.409Z,1002.85
2016-11-08T07:38:18.417Z,1002.88
2016-11-08T07:39:18.478Z,1002.86
2016-11-08T07:40:18.434Z,1002.91
2016-11-08T07:41:18.439Z,1002.89
2016-11-08T07:42:18.448Z,1002.91
2016-11-08T07:43:18.456Z,1002.86
2016-11-08T07:44:18.463Z,1002.85
2016-11-08T07:45:18.520Z,1002.84
2016-11-08T07:46:18.478Z,1002.83
2016-11-08T07:47:18.486Z,1002.91
2016-11-08T07:48:18.493Z,1002.92
2016-11-08T07:49:18.501Z,1002.95
2016-11-08T07:50:18.508Z,1002.97
2016-11-08T07:51:18.515Z,1002.98
2016-11-08T07:52:18.523Z,1002.98
2016-11-08T07:53:18.531Z,1002.99
2016-11-08T07:54:18.590Z,1002.97
2016-11-08T07:55:18.596Z,1002.97
2016-11-08T07:56:19.304Z,1003
2016-11-08T07:57:18.562Z,1002.96
2016-11-08T07:58:18.619Z,1002.97
2016-11-08T07:59:18.576Z,1002.97
2016-11-08T08:00:18.583Z,1002.97
2016-11-08T08:01:18.592Z,1003.02
2016-11-08T08:02:18.599Z,1003.01
2016-11-08T08:03:18.607Z,1003
2016-11-08T08:04:18.616Z,1003.03
2016-11-08T08:05:18.623Z,1003.02
2016-11-08T08:06:18.630Z,1003.02
2016-11-08T08:07:18.638Z,1003.03
2016-11-08T08:08:18.647Z,1003.03
2016-11-08T08:09:18.654Z,1003.02
2016-11-08T08:10:18.661Z,1003.06
2016-11-08T08:11:19.419Z,1003.01
2016-11-08T08:12:18.676Z,1002.98
2016-11-08T08:13:18.734Z,1003.02
2016-11-08T08:14:18.692Z,1002.97
2016-11-08T08:15:18.707Z,1002.97
2016-11-08T08:16:18.708Z,1002.97
2016-11-08T08:17:18.715Z,1002.97
2016-11-08T08:18:18.774Z,1003
2016-11-08T08:19:18.782Z,1003
2016-11-08T08:20:18.740Z,1002.97
2016-11-08T08:21:18.747Z,1002.97
2016-11-08T08:22:18.805Z,1002.96
2016-11-08T08:23:18.818Z,1003
2016-11-08T08:24:18.770Z,1002.96
2016-11-08T08:25:18.827Z,1002.97
2016-11-08T08:26:18.786Z,1002.97
2016-11-08T08:27:18.794Z,1002.97
2016-11-08T08:28:18.853Z,1003
2016-11-08T08:29:18.810Z,1003.03
2016-11-08T08:30:18.869Z,1003.02
2016-11-08T08:31:18.876Z,1003.03
2016-11-08T08:32:18.833Z,1003.07
2016-11-08T08:33:19.298Z,1003.04
2016-11-08T08:34:19.551Z,1003.08
2016-11-08T08:35:18.857Z,1003.06
2016-11-08T08:36:19.318Z,1003.06
2016-11-08T08:37:18.924Z,1003.09
2016-11-08T08:38:18.931Z,1003.11
2016-11-08T08:39:18.939Z,1003.12
2016-11-08T08:40:18.896Z,1003.15
2016-11-08T08:41:18.904Z,1003.17
2016-11-08T08:42:19.376Z,1003.16
2016-11-08T08:43:18.920Z,1003.19
2016-11-08T08:44:18.978Z,1003.21
2016-11-08T08:45:18.936Z,1003.2
2016-11-08T08:46:18.993Z,1003.19
2016-11-08T08:47:19.001Z,1003.22
2016-11-08T08:48:18.959Z,1003.28
2016-11-08T08:49:19.117Z,1003.29
2016-11-08T08:50:19.024Z,1003.31
2016-11-08T08:51:18.984Z,1003.31
2016-11-08T08:52:18.991Z,1003.29
2016-11-08T08:53:19.098Z,1003.32
2016-11-08T08:54:19.010Z,1003.31
2016-11-08T08:55:19.164Z,1003.35
2016-11-08T08:56:19.022Z,1003.35
2016-11-08T08:57:19.079Z,1003.32
2016-11-08T08:58:19.037Z,1003.33
2016-11-08T08:59:19.096Z,1003.36
2016-11-08T09:00:19.105Z,1003.35
2016-11-08T09:01:19.118Z,1003.33
2016-11-08T09:02:19.069Z,1003.39
2016-11-08T09:03:19.527Z,1003.36
2016-11-08T09:04:19.135Z,1003.4
2016-11-08T09:05:19.643Z,1003.41
2016-11-08T09:06:19.152Z,1003.42
2016-11-08T09:07:19.109Z,1003.39
2016-11-08T09:08:19.615Z,1003.43
2016-11-08T09:09:19.174Z,1003.46
2016-11-08T09:10:19.134Z,1003.42
2016-11-08T09:11:20.543Z,1003.47
2016-11-08T09:12:19.149Z,1003.43
2016-11-08T09:13:19.157Z,1003.44
2016-11-08T09:14:19.215Z,1003.46
2016-11-08T09:15:19.923Z,1003.45
2016-11-08T09:16:19.231Z,1003.45
2016-11-08T09:17:19.238Z,1003.45
2016-11-08T09:18:19.297Z,1003.45
2016-11-08T09:19:21.306Z,1003.51
2016-11-08T09:20:19.213Z,1003.49
2016-11-08T09:21:19.270Z,1003.48
2016-11-08T09:22:19.280Z,1003.53
2016-11-08T09:23:19.236Z,1003.5
2016-11-08T09:24:19.553Z,1003.52
2016-11-08T09:25:19.253Z,1003.49
2016-11-08T09:26:19.709Z,1003.49
2016-11-08T09:27:19.373Z,1003.53
2016-11-08T09:28:19.277Z,1003.53
2016-11-08T09:29:19.385Z,1003.52
2016-11-08T09:30:19.342Z,1003.51
2016-11-08T09:31:21.253Z,1003.54
2016-11-08T09:32:20.011Z,1003.53
2016-11-08T09:33:19.367Z,1003.54
2016-11-08T09:34:19.324Z,1003.55
2016-11-08T09:35:19.332Z,1003.57
2016-11-08T09:36:19.340Z,1003.58
2016-11-08T09:37:20.248Z,1003.56
2016-11-08T09:39:19.363Z,1003.61
2016-11-08T09:40:20.324Z,1003.58
2016-11-08T09:41:20.130Z,1003.63
2016-11-08T09:42:19.387Z,1003.58
2016-11-08T09:43:19.475Z,1003.57
2016-11-08T09:44:19.405Z,1003.52
2016-11-08T09:45:19.812Z,1003.52
2016-11-08T09:46:19.468Z,1003.58
2016-11-08T09:47:19.928Z,1003.6
2016-11-08T09:48:20.886Z,1003.59
2016-11-08T09:49:19.494Z,1003.58
2016-11-08T09:50:20.403Z,1003.57
2016-11-08T09:51:19.462Z,1003.58
2016-11-08T09:52:19.471Z,1003.57
2016-11-08T09:53:19.626Z,1003.59
2016-11-08T09:54:19.638Z,1003.61
2016-11-08T09:55:20.244Z,1003.58
2016-11-08T09:56:20.203Z,1003.62
2016-11-08T09:57:19.659Z,1003.61
2016-11-08T09:59:20.477Z,1003.64
2016-11-08T10:00:19.584Z,1003.65
2016-11-08T10:01:19.588Z,1003.66
2016-11-08T10:02:20.302Z,1003.67
2016-11-08T10:03:20.207Z,1003.66
2016-11-08T10:04:19.566Z,1003.69
2016-11-08T10:06:19.652Z,1003.65
2016-11-08T10:07:19.589Z,1003.65
2016-11-08T10:08:19.601Z,1003.67
2016-11-08T10:09:19.605Z,1003.68
2016-11-08T10:10:19.613Z,1003.63
2016-11-08T10:11:19.647Z,1003.64
2016-11-08T10:12:19.722Z,1003.61
2016-11-08T10:13:19.688Z,1003.62
2016-11-08T10:14:19.645Z,1003.59
2016-11-08T10:15:19.674Z,1003.61
2016-11-08T10:16:19.711Z,1003.61
2016-11-08T10:17:19.668Z,1003.6
2016-11-08T10:18:19.728Z,1003.61
2016-11-08T10:19:19.759Z,1003.61
2016-11-08T10:20:19.742Z,1003.59
2016-11-08T10:21:19.700Z,1003.57
2016-11-08T10:22:19.709Z,1003.56
2016-11-08T10:23:19.717Z,1003.59
2016-11-08T10:24:19.799Z,1003.6
2016-11-08T10:25:19.732Z,1003.58
2016-11-08T10:26:20.591Z,1003.59
2016-11-08T10:27:19.749Z,1003.65
2016-11-08T10:28:20.907Z,1003.65
2016-11-08T10:29:19.764Z,1003.68
2016-11-08T10:30:19.771Z,1003.65
2016-11-08T10:31:19.781Z,1003.69
2016-11-08T10:32:19.837Z,1003.66
2016-11-08T10:33:19.879Z,1003.64
2016-11-08T10:34:19.855Z,1003.63
2016-11-08T10:35:19.862Z,1003.64
2016-11-08T10:36:19.819Z,1003.66
2016-11-08T10:37:19.828Z,1003.65
2016-11-08T10:38:19.886Z,1003.6
2016-11-08T10:39:19.843Z,1003.59
2016-11-08T10:40:19.852Z,1003.53
2016-11-08T10:41:19.911Z,1003.53
2016-11-08T10:42:19.919Z,1003.5
2016-11-08T10:43:19.875Z,1003.52
2016-11-08T10:44:19.883Z,1003.49
2016-11-08T10:45:19.892Z,1003.51
2016-11-08T10:46:19.899Z,1003.5
2016-11-08T10:47:19.945Z,1003.52
2016-11-08T10:48:19.917Z,1003.49
2016-11-08T10:49:21.091Z,1003.45
2016-11-08T10:50:19.931Z,1003.47
2016-11-08T10:51:20.015Z,1003.49
2016-11-08T10:52:19.948Z,1003.42
2016-11-08T10:53:19.956Z,1003.44
2016-11-08T10:54:20.034Z,1003.4
2016-11-08T10:55:20.023Z,1003.4
2016-11-08T10:56:19.980Z,1003.37
2016-11-08T10:57:19.988Z,1003.39
2016-11-08T10:58:20.111Z,1003.41
2016-11-08T10:59:20.005Z,1003.38
2016-11-08T11:00:20.013Z,1003.35
2016-11-08T11:01:20.021Z,1003.36
2016-11-08T11:02:20.029Z,1003.37
2016-11-08T11:03:20.038Z,1003.37
2016-11-08T11:04:20.097Z,1003.37
2016-11-08T11:05:20.134Z,1003.36
2016-11-08T11:06:20.086Z,1003.41
2016-11-08T11:07:20.122Z,1003.41
2016-11-08T11:08:20.080Z,1003.41
2016-11-08T11:09:20.138Z,1003.44
2016-11-08T11:10:20.146Z,1003.44
2016-11-08T11:11:20.105Z,1003.49
2016-11-08T11:12:20.170Z,1003.46
2016-11-08T11:13:20.172Z,1003.45
2016-11-08T11:14:20.193Z,1003.44
2016-11-08T11:15:20.140Z,1003.45
2016-11-08T11:16:20.196Z,1003.45
2016-11-08T11:17:20.212Z,1003.5
2016-11-08T11:18:20.164Z,1003.5
2016-11-08T11:19:20.201Z,1003.49
2016-11-08T11:20:20.230Z,1003.51
2016-11-08T11:21:20.189Z,1003.51
2016-11-08T11:22:20.198Z,1003.49
2016-11-08T11:23:20.232Z,1003.51
2016-11-08T11:24:20.213Z,1003.46
2016-11-08T11:25:20.223Z,1003.46
2016-11-08T11:26:20.301Z,1003.48
2016-11-08T11:27:20.289Z,1003.48
2016-11-08T11:28:20.297Z,1003.47
2016-11-08T11:29:20.256Z,1003.46
2016-11-08T11:30:20.265Z,1003.44
2016-11-08T11:31:20.274Z,1003.42
2016-11-08T11:32:20.282Z,1003.4
2016-11-08T11:33:20.340Z,1003.35
2016-11-08T11:34:20.373Z,1003.36
2016-11-08T11:35:20.307Z,1003.3
2016-11-08T11:36:20.315Z,1003.34
2016-11-08T11:37:20.323Z,1003.31
2016-11-08T11:38:20.359Z,1003.31
2016-11-08T11:39:20.391Z,1003.35
2016-11-08T11:40:21.349Z,1003.35
2016-11-08T11:41:20.357Z,1003.32
2016-11-08T11:42:20.366Z,1003.32
2016-11-08T11:43:20.424Z,1003.29
2016-11-08T11:44:20.382Z,1003.27
2016-11-08T11:45:20.389Z,1003.24
2016-11-08T11:46:20.473Z,1003.27
2016-11-08T11:47:20.490Z,1003.26
2016-11-08T11:48:20.415Z,1003.26
2016-11-08T11:49:20.423Z,1003.22
2016-11-08T11:50:20.517Z,1003.24
2016-11-08T11:51:20.440Z,1003.23
2016-11-08T11:52:21.519Z,1003.3
2016-11-08T11:53:20.456Z,1003.26
2016-11-08T11:54:20.464Z,1003.31
2016-11-08T11:55:20.566Z,1003.32
2016-11-08T11:56:20.481Z,1003.3
2016-11-08T11:57:20.567Z,1003.31
2016-11-08T11:58:20.579Z,1003.24
2016-11-08T11:59:20.507Z,1003.28
2016-11-08T12:00:20.566Z,1003.26
2016-11-08T12:01:20.588Z,1003.27
2016-11-08T12:02:20.600Z,1003.27
2016-11-08T12:03:20.590Z,1003.25
2016-11-08T12:04:20.598Z,1003.26
2016-11-08T12:05:20.625Z,1003.28
2016-11-08T12:06:20.628Z,1003.28
2016-11-08T12:07:20.662Z,1003.3
2016-11-08T12:08:20.632Z,1003.25
2016-11-08T12:09:20.640Z,1003.25
2016-11-08T12:10:20.675Z,1003.26
2016-11-08T12:11:21.358Z,1003.23
2016-11-08T12:12:20.614Z,1003.24